Observations for Trim Patrick St
| Time | AQI | Temp °C | Hum % | Pres Pa | CO μg/m³ | H₂S μg/m³ | NO μg/m³ | NO₂ μg/m³ | O₃ μg/m³ | SO₂ μg/m³ | PM1 μg/m³ | PM2.5 μg/m³ | PM10 μg/m³ |
|---|---|---|---|---|---|---|---|---|---|---|---|---|---|
| Thursday 27 August 2026 | |||||||||||||
| 17:31 | 3 | 21.2 | 75 | 38,460 | 0 | 3.52 | 2.43 | 12.75 | 52.35 | 3.26 | 15.71 | 21.89 | 24.08 |
| 17:30 | 3 | 21.2 | 75 | 38,460 | 0.01 | 6.02 | 2.32 | 21.1 | 50.74 | 2.79 | 15.71 | 22.6 | 24.86 |
| 17:29 | 3 | 21.2 | 75 | 38,460 | 0.07 | 6.18 | 1.6 | 29.45 | 47.56 | 2.9 | 17.43 | 21.9 | 24.09 |
| 17:28 | 3 | 21.2 | 75 | 38,460 | 0 | 3.07 | 1.58 | 11.56 | 54.11 | 3.84 | 14 | 19.78 | 21.76 |
| 17:27 | 3 | 21.2 | 75 | 38,460 | 0 | 4.33 | 0.86 | 12.64 | 57.25 | 2.84 | 14 | 21.2 | 23.32 |
| 17:26 | 3 | 21.2 | 75 | 38,460 | 0 | 3.99 | 0.68 | 13.17 | 56.93 | 2.69 | 16.57 | 21.92 | 24.12 |
| 17:25 | 3 | 21.2 | 75 | 38,460 | 0 | 3.89 | 1.05 | 14.17 | 56.31 | 2.68 | 18.29 | 24.77 | 27.25 |
| 17:24 | 3 | 21.3 | 74 | 38,460 | 0 | 2.56 | 1.12 | 12.11 | 48.68 | 4.08 | 13.14 | 19.1 | 21.01 |
| 17:23 | 3 | 21.3 | 74 | 38,460 | 0 | 3.54 | 1.29 | 20.02 | 39.89 | 3.6 | 14.86 | 21.24 | 23.36 |
| 17:22 | 3 | 21.3 | 74 | 38,460 | 0.03 | 3.38 | 2.35 | 18.38 | 40.61 | 4.21 | 13.14 | 19.82 | 21.81 |
| 17:21 | 3 | 21.3 | 74 | 38,460 | 0 | 2.93 | 2.59 | 19.48 | 39.14 | 3.73 | 17.43 | 21.25 | 23.37 |
| 17:20 | 3 | 21.3 | 74 | 38,460 | 0 | 3.28 | 3.01 | 12.67 | 45.03 | 3.56 | 12.29 | 19.1 | 21.01 |
| 17:19 | 3 | 21.4 | 75 | 38,460 | 0.02 | 6.23 | 3.21 | 35.77 | 38.29 | 4.5 | 17.43 | 23.36 | 25.69 |
| 17:18 | 3 | 21.4 | 74 | 38,460 | 0 | 4.01 | 3.35 | 28.28 | 37.45 | 3.87 | 17.43 | 23.39 | 25.73 |
| 17:17 | 3 | 21.4 | 74 | 38,460 | 0.01 | 4.75 | 3.55 | 37.38 | 33.61 | 4.4 | 20 | 29.82 | 30.27 |
| 17:16 | 3 | 21.4 | 74 | 38,460 | 0 | 3.93 | 3.21 | 29.7 | 39.27 | 2.81 | 18.29 | 26.98 | 29.68 |
| 17:15 | 3 | 21.4 | 74 | 38,460 | 0 | 3.19 | 2.5 | 20.46 | 50.26 | 2.46 | 22.57 | 31.95 | 33.94 |
| 17:13 | 3 | 21.4 | 74 | 38,460 | 0 | 3.27 | 3.65 | 15.85 | 47.38 | 2.87 | 18.29 | 24.84 | 27.33 |
| 17:11 | 3 | 21.5 | 74 | 38,460 | 0.06 | 7.94 | 3.32 | 50.41 | 30.05 | 3.28 | 17.43 | 24.12 | 26.53 |
| 17:10 | 3 | 21.5 | 74 | 38,460 | 0.31 | 11.11 | 3.61 | 65.1 | 18.33 | 4.47 | 14.86 | 20.59 | 22.65 |